Bremerton, WA

12:58 PM PST on December 21, 2014 (GMT -0800)
Boeing Field-King County International | Change Station
CLOSE
Current Station
Airport
Location: Seattle Boeing,
Elevation: 16 ft
Nearby Weather Stations

Elev 16 ft 47.53 °N, 122.30 °W | Updated 1 hour ago

Mostly Cloudy
Mostly Cloudy
56 °F
Feels Like 56 °F
N
6
Wind Variable Wind from SW

Today
High -- | Low -- °F
--% Chance of Precip.
Yesterday
High -- | Low -- °F
Precip. -- in
7:55 AM 4:21 PM
Waning Crescent, 0% visible
Pressure 29.95 in
Visibility 10.0 miles
Clouds Scattered Clouds 1800 ft
Mostly Cloudy 10000 ft
Dew Point 46 °F
Humidity 69%
Rainfall 0.00 in
Snow Depth Not available.
UV 1 out of 12
Pollen .40 out of 12
Air Quality Not available.
Flu Activity Not available.
METAR KBFI 211953Z 22005KT 10SM SCT018 BKN100 13/08 A2994 RMK AO2 SLP140 T01330078

More Conditions Fewer Conditions

Pressure 29.95 in
Visibility 10.0 miles
Clouds Scattered Clouds 1800 ft
Mostly Cloudy 10000 ft
Dew Point 46 °F
Humidity 69%
Rainfall 0.00 in
Snow Depth Not available.
UV 1 out of 12
Pollen .40 out of 12
Air Quality Not available.
Flu Activity Not available.
METAR KBFI 211953Z 22005KT 10SM SCT018 BKN100 13/08 A2994 RMK AO2 SLP140 T01330078

More Conditions Fewer Conditions

10-Day Weather Forecast

Almanac

Astronomy

Dec. 21, 2014 Rise Set
Actual Time
Civil Twilight
Nautical Twilight
Astronomical Twilight
Moon
Length of Visible Light
Length of Day
Tomorrow will be .
, % of the Moon is Illuminated

Today's Extremes

State Highs State Lows

Community

WunderPhotos

Upload Photos

1,779,471 photos uploaded!

WunderBlogs® & News

Nearby

Air Quality

  Air Quality AQ Index Pollutant
Not available.

Snow Depth

Station Depth Elevation

Earthquake Activity

City Distance Mag. Time & Date
Minimum magnitude displayed is 2.5.

Coastal Water Temperatures

Place Temperature

Nearby Weather Stations